Time;durP1;ratioP1;P1;durP2;ratioP2;P2;SDS_P1;SDS_P2;PMS_P1;PMS_P2;Temp;Humidity;BMP_temperature;BMP_pressure;BME280_temperature;BME280_humidity;BME280_pressure;Samples;Min_cycle;Max_cycle;Signal;HPM_P1;HPM_P2
2022/04/20 00:01:30;;;;;;;5.55;2.05;;;11.40;99.90;;;;;;20848927;28;20041;-38
2022/04/20 00:11:31;;;;;;;3.17;1.65;;;11.30;99.90;;;;;;20847714;28;20049;-38
2022/04/20 00:21:32;;;;;;;4.15;1.83;;;11.10;99.90;;;;;;20839109;28;20036;-38
2022/04/20 00:31:33;;;;;;;4.40;1.75;;;11.00;99.90;;;;;;20851450;28;20036;-38
2022/04/20 00:41:34;;;;;;;4.28;2.22;;;10.90;99.90;;;;;;20850862;28;20429;-39
2022/04/20 00:51:35;;;;;;;4.13;1.67;;;10.70;99.90;;;;;;20853452;28;20033;-38
2022/04/20 01:01:36;;;;;;;3.55;1.67;;;10.50;99.90;;;;;;20845776;28;20048;-41
2022/04/20 01:11:38;;;;;;;3.60;1.80;;;10.40;99.90;;;;;;20842322;28;20108;-41
2022/04/20 01:21:39;;;;;;;2.95;1.60;;;10.30;99.90;;;;;;20843661;28;20041;-41
2022/04/20 01:31:40;;;;;;;3.35;1.65;;;10.20;99.90;;;;;;20845847;28;20064;-41
2022/04/20 01:41:42;;;;;;;3.55;2.03;;;10.20;99.90;;;;;;20841722;28;20045;-41
2022/04/20 01:51:52;;;;;;;4.78;1.90;;;10.00;99.90;;;;;;20843145;28;20044;-41
2022/04/20 02:12:12;;;;;;;3.33;1.67;;;9.70;99.90;;;;;;20829156;28;20055;-41
2022/04/20 02:22:14;;;;;;;6.55;1.90;;;9.70;99.90;;;;;;20829995;28;20029;-41
2022/04/20 02:32:15;;;;;;;5.55;1.77;;;9.70;99.90;;;;;;20828263;28;20049;-41
2022/04/20 02:42:17;;;;;;;5.20;1.70;;;9.50;99.90;;;;;;20824310;28;20135;-42
2022/04/20 02:52:18;;;;;;;4.13;1.75;;;9.30;99.90;;;;;;20823620;28;20412;-41
2022/04/20 03:02:19;;;;;;;2.90;1.08;;;9.10;99.90;;;;;;20826770;28;20045;-40
2022/04/20 03:12:20;;;;;;;5.65;1.90;;;8.90;99.90;;;;;;20823426;28;21123;-41
2022/04/20 03:22:21;;;;;;;4.38;1.45;;;8.80;99.90;;;;;;20821187;28;20085;-41
2022/04/20 03:32:23;;;;;;;2.70;1.02;;;8.60;99.90;;;;;;20839599;28;20045;-41
2022/04/20 03:42:24;;;;;;;3.25;1.20;;;8.60;99.90;;;;;;20834332;28;20029;-41
2022/04/20 03:52:25;;;;;;;3.83;0.98;;;8.50;99.90;;;;;;20832384;28;20033;-41
2022/04/20 04:02:26;;;;;;;1.80;0.90;;;8.40;99.90;;;;;;20827208;28;20038;-41
2022/04/20 04:12:27;;;;;;;2.65;1.27;;;8.30;99.90;;;;;;20824687;28;20336;-41
2022/04/20 04:22:28;;;;;;;3.03;1.30;;;8.10;99.90;;;;;;20833950;28;20043;-38
2022/04/20 04:32:29;;;;;;;3.33;1.40;;;8.10;99.90;;;;;;20853037;28;20041;-40
2022/04/20 04:42:30;;;;;;;4.18;1.52;;;7.90;99.90;;;;;;20854493;28;20045;-39
2022/04/20 04:52:31;;;;;;;3.92;1.20;;;7.80;99.90;;;;;;20855735;28;20029;-39
2022/04/20 05:02:33;;;;;;;2.60;1.20;;;7.80;99.90;;;;;;20843383;28;20103;-39
2022/04/20 05:12:35;;;;;;;3.67;1.10;;;7.70;99.90;;;;;;20850916;28;20025;-39
2022/04/20 05:22:39;;;;;;;4.45;1.50;;;7.60;99.90;;;;;;20850090;28;20040;-38
2022/04/20 05:32:41;;;;;;;2.97;1.00;;;7.50;99.90;;;;;;20845685;28;20038;-39
2022/04/20 05:42:42;;;;;;;1.92;0.80;;;7.70;99.90;;;;;;20842322;28;20040;-39
2022/04/20 05:52:43;;;;;;;2.97;0.93;;;8.10;99.90;;;;;;20843847;28;20025;-39
2022/04/20 06:02:44;;;;;;;3.05;1.20;;;8.80;99.90;;;;;;20836474;28;20048;-39
2022/04/20 06:12:45;;;;;;;3.75;1.42;;;9.00;99.90;;;;;;20830803;28;20033;-39
2022/04/20 06:22:46;;;;;;;1.67;0.68;;;9.20;99.90;;;;;;20826517;28;20044;-38
2022/04/20 06:32:47;;;;;;;2.28;1.10;;;9.60;99.90;;;;;;20824027;28;20033;-39
2022/04/20 06:42:48;;;;;;;2.00;0.82;;;10.00;99.90;;;;;;20818492;28;20036;-38
2022/04/20 07:03:08;;;;;;;3.25;1.23;;;10.80;99.90;;;;;;20808828;28;20087;-39
2022/04/20 07:13:10;;;;;;;2.70;1.10;;;11.10;99.90;;;;;;20804625;28;20040;-39
2022/04/20 07:23:11;;;;;;;2.63;0.98;;;11.40;99.90;;;;;;20813607;28;20052;-39
2022/04/20 07:33:16;;;;;;;1.58;0.88;;;11.60;99.90;;;;;;20823540;28;20041;-39
2022/04/20 07:43:17;;;;;;;8.18;1.90;;;11.80;99.90;;;;;;20822692;28;20059;-39
2022/04/20 07:53:18;;;;;;;4.82;0.63;;;12.10;99.90;;;;;;20765573;28;20438;-39
2022/04/20 08:03:19;;;;;;;3.25;0.70;;;12.20;99.90;;;;;;20808134;28;20452;-39
2022/04/20 08:23:40;;;;;;;1.73;0.52;;;12.90;99.90;;;;;;20800422;28;20036;-39
2022/04/20 08:33:42;;;;;;;1.65;0.80;;;13.50;99.90;;;;;;20789196;28;20797;-39
2022/04/20 08:43:43;;;;;;;2.70;1.13;;;13.60;99.90;;;;;;20846247;28;20762;-39
2022/04/20 08:53:44;;;;;;;2.05;0.50;;;13.90;97.90;;;;;;20837604;28;20029;-39
2022/04/20 09:03:46;;;;;;;2.15;0.85;;;14.40;97.60;;;;;;20833464;28;20044;-39
2022/04/20 09:13:51;;;;;;;1.58;0.50;;;14.80;96.30;;;;;;20850030;28;20059;-39
2022/04/20 09:24:07;;;;;;;1.67;0.60;;;15.00;96.10;;;;;;20841626;28;20037;-39
2022/04/20 09:34:08;;;;;;;1.40;0.52;;;15.40;95.80;;;;;;20818265;28;20045;-39
2022/04/20 09:44:16;;;;;;;1.20;0.45;;;15.70;94.60;;;;;;20843528;28;20119;-39
2022/04/20 09:54:27;;;;;;;2.30;0.65;;;15.70;94.90;;;;;;20855154;28;20484;-39
2022/04/20 10:04:29;;;;;;;1.40;0.65;;;15.90;93.60;;;;;;20840934;28;20044;-38
2022/04/20 10:24:56;;;;;;;2.08;0.80;;;16.60;93.10;;;;;;20815475;28;20039;-39
2022/04/20 10:34:59;;;;;;;7.60;1.05;;;16.90;92.90;;;;;;20743573;28;20330;-39
2022/04/20 10:45:06;;;;;;;2.35;0.85;;;17.10;90.70;;;;;;20744473;28;20041;-39
2022/04/20 10:55:12;;;;;;;1.15;0.30;;;17.00;90.90;;;;;;20839915;28;20076;-39
2022/04/20 11:05:14;;;;;;;1.45;0.50;;;17.40;91.20;;;;;;20833493;28;20751;-39
2022/04/20 11:25:53;;;;;;;0.57;0.30;;;18.20;90.60;;;;;;20837074;28;20064;-39
2022/04/20 11:35:57;;;;;;;1.10;0.40;;;18.50;90.50;;;;;;20835294;28;20038;-39
2022/04/20 11:46:00;;;;;;;1.10;0.45;;;18.70;90.10;;;;;;20820523;28;20037;-39
2022/04/20 11:56:04;;;;;;;0.93;0.43;;;19.10;91.10;;;;;;20813221;28;20048;-39
2022/04/20 12:06:10;;;;;;;1.15;0.38;;;19.30;90.30;;;;;;20788014;28;20049;-39
2022/04/20 12:16:13;;;;;;;0.88;0.40;;;19.50;90.40;;;;;;20829961;28;20520;-39
2022/04/20 12:26:14;;;;;;;1.00;0.40;;;19.40;90.20;;;;;;20802384;28;20048;-39
2022/04/20 12:36:15;;;;;;;1.10;0.40;;;19.60;87.80;;;;;;20823023;28;20047;-39
2022/04/20 12:46:16;;;;;;;1.13;0.40;;;19.80;88.20;;;;;;20799806;28;20350;-39
2022/04/20 13:06:38;;;;;;;1.20;0.60;;;20.00;84.70;;;;;;20792993;28;20416;-39
2022/04/20 13:16:39;;;;;;;1.42;0.60;;;20.00;84.30;;;;;;20782652;28;20429;-39
2022/04/20 13:37:00;;;;;;;3.20;0.35;;;20.40;82.60;;;;;;20733818;28;20417;-39
2022/04/20 13:47:01;;;;;;;1.13;0.80;;;20.50;85.20;;;;;;20724018;28;20049;-39
2022/04/20 13:57:03;;;;;;;1.38;0.85;;;21.00;80.20;;;;;;20731221;28;20038;-39
2022/04/20 14:07:05;;;;;;;1.10;0.45;;;20.40;81.40;;;;;;20717304;28;20489;-39
2022/04/20 14:17:06;;;;;;;0.75;0.40;;;20.00;81.20;;;;;;20717950;28;20405;-39
2022/04/20 14:37:28;;;;;;;1.00;0.50;;;19.70;84.90;;;;;;20740050;28;20034;-39
2022/04/20 14:47:29;;;;;;;1.00;0.40;;;19.50;83.90;;;;;;20724650;28;20050;-40
2022/04/20 14:57:31;;;;;;;0.98;0.45;;;19.20;85.40;;;;;;20737058;28;20057;-39
2022/04/20 15:07:32;;;;;;;2.42;1.05;;;19.10;85.20;;;;;;20719526;28;20371;-39
2022/04/20 15:17:33;;;;;;;1.10;0.60;;;19.10;86.00;;;;;;20722826;28;20045;-39
2022/04/20 15:27:34;;;;;;;2.55;0.50;;;19.10;83.70;;;;;;20723318;28;20038;-39
2022/04/20 15:37:37;;;;;;;1.40;0.60;;;18.70;84.60;;;;;;20749309;28;20037;-39
2022/04/20 15:47:38;;;;;;;1.58;0.85;;;18.60;83.10;;;;;;20745168;28;20214;-39
2022/04/20 16:07:59;;;;;;;2.60;0.88;;;18.40;83.00;;;;;;20756361;28;21555;-39
2022/04/20 16:18:00;;;;;;;1.30;0.68;;;18.20;83.80;;;;;;20761389;28;20366;-39
2022/04/20 16:28:03;;;;;;;3.08;0.90;;;18.00;85.60;;;;;;20748970;28;20042;-39
2022/04/20 16:38:05;;;;;;;2.67;0.90;;;18.10;84.40;;;;;;20743082;28;20508;-39
2022/04/20 16:48:06;;;;;;;1.98;0.93;;;17.90;85.30;;;;;;20727438;28;20425;-39
2022/04/20 16:58:08;;;;;;;3.13;0.95;;;17.70;86.10;;;;;;20754143;28;20038;-39
2022/04/20 17:08:10;;;;;;;1.80;0.73;;;17.60;85.00;;;;;;20770500;28;20414;-39
2022/04/20 17:18:11;;;;;;;1.77;1.05;;;17.40;88.20;;;;;;20746213;28;20053;-39
2022/04/20 17:28:12;;;;;;;2.40;1.30;;;17.30;89.20;;;;;;20730173;28;20253;-39
2022/04/20 17:38:13;;;;;;;2.40;1.23;;;17.20;89.10;;;;;;20836099;28;20037;-39
2022/04/20 17:48:14;;;;;;;2.85;0.80;;;16.90;90.10;;;;;;20851470;28;20071;-40
2022/04/20 17:58:15;;;;;;;2.15;0.68;;;16.80;90.30;;;;;;20834717;28;20041;-40
2022/04/20 18:08:16;;;;;;;1.33;0.55;;;16.70;90.60;;;;;;20834872;28;20053;-39
2022/04/20 18:18:17;;;;;;;3.63;1.00;;;16.60;90.80;;;;;;20831641;28;20032;-39
2022/04/20 18:28:18;;;;;;;2.75;0.60;;;16.50;91.20;;;;;;20797824;28;23212;-40
2022/04/20 18:38:19;;;;;;;2.42;1.17;;;16.30;91.30;;;;;;20811742;28;20052;-40
2022/04/20 18:48:21;;;;;;;3.33;1.05;;;16.10;92.20;;;;;;20809852;28;20034;-40
2022/04/20 18:58:23;;;;;;;0.98;0.47;;;15.80;92.90;;;;;;20823385;28;20068;-40
2022/04/20 19:08:24;;;;;;;3.13;1.48;;;15.60;94.10;;;;;;20832019;28;20053;-40
2022/04/20 19:18:26;;;;;;;1.27;0.50;;;15.40;95.10;;;;;;20915972;28;21952;-40
2022/04/20 19:28:27;;;;;;;4.97;0.88;;;15.20;95.50;;;;;;20909099;28;20048;-40
2022/04/20 19:38:29;;;;;;;1.15;0.55;;;14.90;96.40;;;;;;20904247;28;20037;-40
2022/04/20 19:48:30;;;;;;;1.48;0.52;;;14.70;97.60;;;;;;20900829;28;20044;-40
2022/04/20 19:58:31;;;;;;;1.70;0.70;;;14.50;98.80;;;;;;20853382;28;20472;-40
2022/04/20 20:08:32;;;;;;;2.35;0.98;;;14.30;98.40;;;;;;20895970;28;20071;-40
2022/04/20 20:18:34;;;;;;;1.77;0.93;;;14.20;98.70;;;;;;20898176;28;20045;-40
2022/04/20 20:38:55;;;;;;;2.60;1.08;;;13.80;99.90;;;;;;20901497;28;20057;-40
2022/04/20 20:59:20;;;;;;;2.53;1.00;;;13.40;99.90;;;;;;20895612;28;20043;-40
2022/04/20 21:09:21;;;;;;;3.38;1.20;;;13.10;99.90;;;;;;20891675;28;20559;-40
2022/04/20 21:19:22;;;;;;;3.60;1.33;;;13.00;99.90;;;;;;20902744;28;20075;-39
2022/04/20 21:29:24;;;;;;;5.45;1.83;;;12.90;99.90;;;;;;20884538;28;20036;-39
2022/04/20 21:39:25;;;;;;;10.15;1.38;;;12.70;99.90;;;;;;20885182;28;20052;-39
2022/04/20 21:49:26;;;;;;;2.83;1.13;;;12.60;99.90;;;;;;20891392;28;20044;-39
2022/04/20 21:59:27;;;;;;;7.18;2.42;;;12.60;99.90;;;;;;20910899;28;20041;-39
2022/04/20 22:09:38;;;;;;;3.83;1.77;;;12.50;99.90;;;;;;20913647;28;20048;-39
2022/04/20 22:19:40;;;;;;;4.00;1.30;;;12.40;99.90;;;;;;20886218;28;20036;-39
2022/04/20 22:29:41;;;;;;;3.88;1.77;;;12.30;99.90;;;;;;20889345;28;20047;-39
2022/04/20 22:39:42;;;;;;;4.70;1.73;;;12.10;99.90;;;;;;20906710;28;20033;-39
2022/04/20 22:49:43;;;;;;;3.38;1.75;;;12.00;99.90;;;;;;20916379;28;20041;-39
2022/04/20 22:59:47;;;;;;;4.13;1.40;;;11.90;99.90;;;;;;20906858;28;20488;-39
2022/04/20 23:09:48;;;;;;;7.82;2.58;;;11.70;99.90;;;;;;20891937;28;20056;-39
2022/04/20 23:19:49;;;;;;;3.05;1.52;;;11.60;99.90;;;;;;20901819;28;20268;-39
2022/04/20 23:29:50;;;;;;;3.70;1.73;;;11.50;99.90;;;;;;20906855;28;20052;-39
2022/04/20 23:39:51;;;;;;;5.35;2.08;;;11.40;99.90;;;;;;20897110;28;20036;-39
